Time;durP1;ratioP1;P1;durP2;ratioP2;P2;SDS_P1;SDS_P2;PMS_P1;PMS_P2;Temp;Humidity;BMP_temperature;BMP_pressure;BME280_temperature;BME280_humidity;BME280_pressure;Samples;Min_cycle;Max_cycle;Signal;HPM_P1;HPM_P2
2022/08/30 00:01:01;;;;;;;;;;;15.00;99.90;;;;;;5125323;27;20405;-54
2022/08/30 00:02:09;;;;;;;;;;;15.00;99.90;;;;;;5122303;27;19915;-53
2022/08/30 00:04:50;;;;;;;;;;;15.00;99.90;;;;;;5122499;27;19927;-53
2022/08/30 00:07:30;;;;;;;;;;;14.90;99.90;;;;;;5110124;27;19916;-54
2022/08/30 00:10:10;;;;;;;;;;;14.90;99.90;;;;;;5103403;27;20281;-54
2022/08/30 00:12:52;;;;;;;;;;;14.80;99.90;;;;;;5128460;27;19919;-53
2022/08/30 00:15:33;;;;;;;;;;;14.80;99.90;;;;;;5120715;27;20572;-54
2022/08/30 00:18:14;;;;;;;;;;;14.70;99.90;;;;;;5100841;27;19916;-52
2022/08/30 00:20:55;;;;;;;;;;;14.60;99.90;;;;;;5100125;27;19930;-52
2022/08/30 00:23:35;;;;;;;;;;;14.70;99.90;;;;;;5101143;27;19930;-54
2022/08/30 00:26:15;;;;;;;;;;;14.70;99.90;;;;;;5107220;27;19912;-53
2022/08/30 00:28:57;;;;;;;;;;;14.60;99.90;;;;;;5126593;27;19916;-55
2022/08/30 00:31:38;;;;;;;;;;;14.40;99.90;;;;;;5127087;27;19918;-54
2022/08/30 00:34:18;;;;;;;;;;;14.30;99.90;;;;;;5128417;27;19925;-52
2022/08/30 00:36:58;;;;;;;;;;;14.30;99.90;;;;;;5117408;27;19912;-53
2022/08/30 00:39:37;;;;;;;;;;;14.20;99.90;;;;;;5126420;27;19918;-54
2022/08/30 00:42:18;;;;;;;;;;;14.20;99.90;;;;;;5106263;27;19953;-53
2022/08/30 00:44:59;;;;;;;;;;;14.00;99.90;;;;;;5127143;27;20300;-53
2022/08/30 00:47:40;;;;;;;;;;;13.80;99.90;;;;;;5106254;27;19946;-53
2022/08/30 00:50:21;;;;;;;;;;;13.70;99.90;;;;;;5126784;27;19911;-53
2022/08/30 00:53:04;;;;;;;;;;;13.60;99.90;;;;;;5106230;27;19916;-52
2022/08/30 00:55:45;;;;;;;;;;;13.40;99.90;;;;;;5127010;27;19912;-52
2022/08/30 00:58:27;;;;;;;;;;;13.40;99.90;;;;;;5126820;27;19918;-53
2022/08/30 01:01:08;;;;;;;;;;;13.20;99.90;;;;;;5147522;27;19911;-53
2022/08/30 01:03:49;;;;;;;;;;;13.10;99.90;;;;;;5126944;27;19912;-52
2022/08/30 01:06:28;;;;;;;;;;;13.00;99.90;;;;;;5122336;27;19912;-53
2022/08/30 01:09:09;;;;;;;;;;;12.90;99.90;;;;;;5126840;27;19918;-54
2022/08/30 01:11:48;;;;;;;;;;;12.80;99.90;;;;;;5127236;27;19918;-54
2022/08/30 01:14:28;;;;;;;;;;;12.80;99.90;;;;;;5106595;27;19953;-53
2022/08/30 01:17:09;;;;;;;;;;;12.70;99.90;;;;;;5106645;27;20332;-53
2022/08/30 01:19:53;;;;;;;;;;;12.60;99.90;;;;;;5106218;27;19930;-53
2022/08/30 01:22:37;;;;;;;;;;;12.60;99.90;;;;;;5126902;27;20431;-52
2022/08/30 01:25:18;;;;;;;;;;;12.60;99.90;;;;;;5127107;27;19916;-54
2022/08/30 01:28:00;;;;;;;;;;;12.60;99.90;;;;;;5126683;27;19918;-54
2022/08/30 01:30:41;;;;;;;;;;;12.50;99.90;;;;;;5126660;27;19912;-53
2022/08/30 01:33:21;;;;;;;;;;;12.60;99.90;;;;;;5125253;27;19911;-53
2022/08/30 01:36:02;;;;;;;;;;;12.80;99.90;;;;;;5124788;27;19912;-54
2022/08/30 01:38:46;;;;;;;;;;;12.90;99.90;;;;;;5119830;27;20370;-53
2022/08/30 01:41:26;;;;;;;;;;;13.10;99.90;;;;;;5126311;27;20513;-55
2022/08/30 01:44:07;;;;;;;;;;;13.20;99.90;;;;;;5126040;27;19918;-53
2022/08/30 01:46:48;;;;;;;;;;;13.30;99.90;;;;;;5118505;27;20316;-53
2022/08/30 01:49:28;;;;;;;;;;;13.40;99.90;;;;;;5106029;27;19926;-53
2022/08/30 01:52:08;;;;;;;;;;;13.40;99.90;;;;;;5106448;27;19953;-54
2022/08/30 01:54:48;;;;;;;;;;;13.30;99.90;;;;;;5100123;27;20113;-53
2022/08/30 01:57:28;;;;;;;;;;;13.20;99.90;;;;;;5112822;27;19919;-54
2022/08/30 02:00:09;;;;;;;;;;;13.10;99.90;;;;;;5106699;27;19938;-54
2022/08/30 02:02:52;;;;;;;;;;;13.00;99.90;;;;;;5126998;27;19911;-53
2022/08/30 02:05:32;;;;;;;;;;;13.00;99.90;;;;;;5126691;27;19912;-54
2022/08/30 02:08:12;;;;;;;;;;;12.90;99.90;;;;;;5126788;27;19922;-54
2022/08/30 02:10:51;;;;;;;;;;;12.80;99.90;;;;;;5106631;27;19919;-53
2022/08/30 02:13:31;;;;;;;;;;;12.80;99.90;;;;;;5085767;28;19917;-54
2022/08/30 02:16:12;;;;;;;;;;;12.70;99.90;;;;;;5124155;27;19916;-54
2022/08/30 02:18:56;;;;;;;;;;;12.60;99.90;;;;;;5106419;27;19912;-54
2022/08/30 02:21:35;;;;;;;;;;;12.40;99.90;;;;;;5126337;27;19912;-54
2022/08/30 02:24:15;;;;;;;;;;;12.30;99.90;;;;;;5126553;27;19922;-53
2022/08/30 02:26:55;;;;;;;;;;;12.20;99.90;;;;;;5105995;27;19926;-54
2022/08/30 02:29:35;;;;;;;;;;;12.10;99.90;;;;;;5126387;27;19918;-53
2022/08/30 02:32:15;;;;;;;;;;;12.00;99.90;;;;;;5126629;27;20294;-53
2022/08/30 02:34:55;;;;;;;;;;;11.90;99.90;;;;;;5126374;27;19911;-54
2022/08/30 02:37:34;;;;;;;;;;;11.80;99.90;;;;;;5105863;27;19912;-53
2022/08/30 02:40:14;;;;;;;;;;;11.70;99.90;;;;;;5126514;27;20323;-54
2022/08/30 02:42:54;;;;;;;;;;;11.70;99.90;;;;;;5126857;27;19918;-53
2022/08/30 02:45:34;;;;;;;;;;;11.60;99.90;;;;;;5126761;27;19912;-53
2022/08/30 02:48:14;;;;;;;;;;;11.60;99.90;;;;;;5127131;27;19912;-53
2022/08/30 02:50:54;;;;;;;;;;;11.50;99.90;;;;;;5126223;27;19918;-53
2022/08/30 02:53:33;;;;;;;;;;;11.40;99.90;;;;;;5126538;27;20572;-53
2022/08/30 02:56:14;;;;;;;;;;;11.40;99.90;;;;;;5130529;27;19912;-53
2022/08/30 02:58:55;;;;;;;;;;;11.40;99.90;;;;;;5106124;27;19935;-53
2022/08/30 03:01:37;;;;;;;;;;;11.30;99.90;;;;;;5126411;27;19912;-53
2022/08/30 03:04:18;;;;;;;;;;;11.40;99.90;;;;;;5126994;27;19922;-54
2022/08/30 03:06:57;;;;;;;;;;;11.40;99.90;;;;;;5126550;27;20324;-53
2022/08/30 03:09:37;;;;;;;;;;;11.30;99.90;;;;;;5105386;27;19950;-54
2022/08/30 03:12:17;;;;;;;;;;;11.20;99.90;;;;;;5126935;27;19912;-54
2022/08/30 03:14:57;;;;;;;;;;;11.20;99.90;;;;;;5106131;27;19916;-53
2022/08/30 03:17:37;;;;;;;;;;;11.10;99.90;;;;;;5091114;27;19916;-54
2022/08/30 03:20:16;;;;;;;;;;;11.00;99.90;;;;;;5126700;27;20518;-54
2022/08/30 03:22:56;;;;;;;;;;;11.00;99.90;;;;;;5126916;27;20284;-53
2022/08/30 03:25:38;;;;;;;;;;;11.00;99.90;;;;;;5126241;27;19912;-53
2022/08/30 03:28:18;;;;;;;;;;;11.00;99.90;;;;;;5106034;27;20371;-53
2022/08/30 03:30:57;;;;;;;;;;;11.00;99.90;;;;;;5126379;27;19933;-54
2022/08/30 03:33:38;;;;;;;;;;;11.00;99.90;;;;;;5126577;27;19912;-53
2022/08/30 03:36:19;;;;;;;;;;;11.00;99.90;;;;;;5126192;27;19918;-54
2022/08/30 03:39:00;;;;;;;;;;;11.00;99.90;;;;;;5126757;27;19912;-53
2022/08/30 03:41:40;;;;;;;;;;;11.00;99.90;;;;;;5126375;27;19915;-53
2022/08/30 03:44:20;;;;;;;;;;;11.00;99.90;;;;;;5126823;27;20122;-54
2022/08/30 03:47:00;;;;;;;;;;;11.00;99.90;;;;;;5126524;27;19912;-53
2022/08/30 03:49:39;;;;;;;;;;;11.00;99.90;;;;;;5126427;27;20456;-53
2022/08/30 03:52:19;;;;;;;;;;;11.00;99.90;;;;;;5126682;27;19918;-54
2022/08/30 03:55:00;;;;;;;;;;;11.00;99.90;;;;;;5127850;27;19912;-54
2022/08/30 03:57:41;;;;;;;;;;;11.00;99.90;;;;;;5110711;27;19947;-53
2022/08/30 04:00:21;;;;;;;;;;;10.90;99.90;;;;;;5126323;27;19912;-54
2022/08/30 04:03:00;;;;;;;;;;;10.90;99.90;;;;;;5125805;27;19912;-53
2022/08/30 04:05:40;;;;;;;;;;;10.90;99.90;;;;;;5126771;27;19918;-54
2022/08/30 04:08:20;;;;;;;;;;;10.90;99.90;;;;;;5126931;27;19945;-53
2022/08/30 04:11:01;;;;;;;;;;;10.90;99.90;;;;;;5126699;27;19912;-54
2022/08/30 04:13:41;;;;;;;;;;;10.90;99.90;;;;;;5126800;27;19912;-54
2022/08/30 04:16:21;;;;;;;;;;;10.90;99.90;;;;;;5122768;27;19918;-54
2022/08/30 04:19:02;;;;;;;;;;;11.00;99.90;;;;;;5106138;27;19926;-54
2022/08/30 04:21:43;;;;;;;;;;;11.00;99.90;;;;;;5105824;27;19926;-54
2022/08/30 04:24:26;;;;;;;;;;;11.00;99.90;;;;;;5106207;27;19930;-54
2022/08/30 04:27:05;;;;;;;;;;;11.10;99.90;;;;;;5116755;27;19953;-54
2022/08/30 04:29:45;;;;;;;;;;;11.10;99.90;;;;;;5126471;27;19911;-54
2022/08/30 04:32:26;;;;;;;;;;;11.10;99.90;;;;;;5106042;27;19926;-54
2022/08/30 04:35:07;;;;;;;;;;;11.10;99.90;;;;;;5127364;27;19911;-54
2022/08/30 04:37:48;;;;;;;;;;;11.00;99.90;;;;;;5090153;27;19912;-54
2022/08/30 04:40:27;;;;;;;;;;;11.00;99.90;;;;;;5125980;27;19911;-54
2022/08/30 04:43:07;;;;;;;;;;;11.00;99.90;;;;;;5126778;27;20304;-54
2022/08/30 04:45:48;;;;;;;;;;;11.00;99.90;;;;;;5119457;27;19922;-54
2022/08/30 04:48:28;;;;;;;;;;;10.90;99.90;;;;;;5120683;27;20304;-54
2022/08/30 04:51:09;;;;;;;;;;;10.90;99.90;;;;;;5126429;27;19912;-54
2022/08/30 04:53:50;;;;;;;;;;;10.90;99.90;;;;;;5125185;27;19916;-53
2022/08/30 04:56:30;;;;;;;;;;;10.90;99.90;;;;;;5100308;27;19931;-54
2022/08/30 04:59:10;;;;;;;;;;;10.90;99.90;;;;;;5126392;27;19918;-53
2022/08/30 05:01:49;;;;;;;;;;;10.90;99.90;;;;;;5106430;27;19926;-54
2022/08/30 05:04:29;;;;;;;;;;;10.90;99.90;;;;;;5106070;27;19915;-54
2022/08/30 05:07:09;;;;;;;;;;;11.00;99.90;;;;;;5115747;27;19946;-54
2022/08/30 05:09:49;;;;;;;;;;;11.10;99.90;;;;;;5126141;27;20342;-55
2022/08/30 05:12:28;;;;;;;;;;;11.20;99.90;;;;;;5106073;27;19945;-54
2022/08/30 05:15:09;;;;;;;;;;;11.20;99.90;;;;;;5126656;27;19925;-54
2022/08/30 05:17:50;;;;;;;;;;;11.20;99.90;;;;;;5109969;27;19916;-54
2022/08/30 05:20:30;;;;;;;;;;;11.30;99.90;;;;;;5123821;27;20316;-53
2022/08/30 05:23:11;;;;;;;;;;;11.50;99.90;;;;;;5125869;27;19916;-54
2022/08/30 05:25:51;;;;;;;;;;;11.60;99.90;;;;;;5106109;27;19912;-54
2022/08/30 05:28:31;;;;;;;;;;;11.70;99.90;;;;;;5086047;28;20285;-54
2022/08/30 05:31:14;;;;;;;;;;;11.80;99.90;;;;;;5126218;27;19923;-54
2022/08/30 05:33:55;;;;;;;;;;;11.90;99.90;;;;;;5126546;27;20382;-54
2022/08/30 05:36:36;;;;;;;;;;;12.10;99.90;;;;;;5123077;27;19911;-54
2022/08/30 05:39:16;;;;;;;;;;;12.20;99.90;;;;;;5126262;27;19911;-54
2022/08/30 05:41:57;;;;;;;;;;;12.40;99.90;;;;;;5126168;27;19926;-54
2022/08/30 05:44:38;;;;;;;;;;;12.50;99.90;;;;;;5126751;27;20274;-53
2022/08/30 05:47:17;;;;;;;;;;;12.70;99.90;;;;;;5114786;27;20387;-53
2022/08/30 05:49:57;;;;;;;;;;;12.90;99.90;;;;;;5124396;27;19918;-54
2022/08/30 05:52:38;;;;;;;;;;;13.10;99.90;;;;;;5085950;28;19916;-53
2022/08/30 05:55:19;;;;;;;;;;;13.30;99.90;;;;;;5109648;27;20361;-54
2022/08/30 05:57:59;;;;;;;;;;;13.50;99.90;;;;;;5108750;27;19912;-54
2022/08/30 06:00:40;;;;;;;;;;;13.70;99.90;;;;;;5125620;27;19918;-54
2022/08/30 06:03:21;;;;;;;;;;;13.80;99.90;;;;;;5106564;27;19954;-53
2022/08/30 06:06:02;;;;;;;;;;;14.00;99.90;;;;;;5104549;27;19912;-53
2022/08/30 06:08:44;;;;;;;;;;;14.10;99.90;;;;;;5105749;27;19912;-53
2022/08/30 06:11:25;;;;;;;;;;;14.30;99.90;;;;;;5106270;27;19970;-54
2022/08/30 06:14:06;;;;;;;;;;;14.50;99.90;;;;;;5124508;27;19916;-54
2022/08/30 06:16:45;;;;;;;;;;;14.60;99.90;;;;;;5119008;27;20337;-54
2022/08/30 06:19:25;;;;;;;;;;;14.70;99.90;;;;;;5126566;27;19918;-53
2022/08/30 06:22:05;;;;;;;;;;;14.80;99.90;;;;;;5126699;27;19918;-53
2022/08/30 06:24:45;;;;;;;;;;;15.00;99.90;;;;;;5126541;27;20266;-53
2022/08/30 06:27:24;;;;;;;;;;;15.10;99.90;;;;;;5113759;27;19912;-53
2022/08/30 06:30:07;;;;;;;;;;;15.30;99.90;;;;;;5105835;27;19927;-53
2022/08/30 06:32:47;;;;;;;;;;;15.40;99.90;;;;;;5126622;27;20402;-53
2022/08/30 06:35:28;;;;;;;;;;;15.60;99.90;;;;;;5126277;27;19918;-54
2022/08/30 06:38:09;;;;;;;;;;;15.70;99.90;;;;;;5085568;27;19920;-53
2022/08/30 06:40:49;;;;;;;;;;;15.80;99.90;;;;;;5125016;27;19912;-53
2022/08/30 06:43:30;;;;;;;;;;;15.90;99.90;;;;;;5125163;27;19912;-53
2022/08/30 06:46:11;;;;;;;;;;;16.10;99.90;;;;;;5102581;27;19961;-54
2022/08/30 06:48:51;;;;;;;;;;;16.20;99.90;;;;;;5105146;27;19946;-54
2022/08/30 06:51:32;;;;;;;;;;;16.30;99.90;;;;;;5105630;27;19961;-53
2022/08/30 06:54:12;;;;;;;;;;;16.50;99.90;;;;;;5125828;27;19918;-54
2022/08/30 06:56:52;;;;;;;;;;;16.70;99.90;;;;;;5116848;27;19922;-53
2022/08/30 06:59:32;;;;;;;;;;;16.80;99.90;;;;;;5125091;27;19922;-53
2022/08/30 07:02:12;;;;;;;;;;;16.90;99.90;;;;;;5125052;27;19918;-53
2022/08/30 07:04:52;;;;;;;;;;;17.10;99.90;;;;;;5124581;27;20274;-53
2022/08/30 07:07:31;;;;;;;;;;;17.20;99.90;;;;;;5111077;27;19919;-53
2022/08/30 07:10:13;;;;;;;;;;;17.20;99.90;;;;;;5125216;27;19922;-53
2022/08/30 07:12:53;;;;;;;;;;;17.30;99.90;;;;;;5146324;27;19915;-53
2022/08/30 07:15:33;;;;;;;;;;;17.50;99.90;;;;;;5124536;27;19912;-53
2022/08/30 07:21:11;;;;;;;;;;;17.80;99.90;;;;;;5105116;27;19916;-54
2022/08/30 07:23:52;;;;;;;;;;;18.00;99.90;;;;;;5144474;27;20395;-53
2022/08/30 07:26:32;;;;;;;;;;;18.10;99.90;;;;;;5063482;28;19919;-53
2022/08/30 07:29:13;;;;;;;;;;;18.20;99.90;;;;;;5124918;27;19942;-54
2022/08/30 07:31:52;;;;;;;;;;;18.30;99.90;;;;;;5104598;27;20374;-53
2022/08/30 07:34:32;;;;;;;;;;;18.50;99.90;;;;;;5125390;27;19912;-53
2022/08/30 07:37:12;;;;;;;;;;;18.50;99.90;;;;;;5114786;27;19918;-53
2022/08/30 07:39:52;;;;;;;;;;;18.70;99.90;;;;;;5104461;27;19962;-53
2022/08/30 07:42:32;;;;;;;;;;;18.80;99.90;;;;;;5125945;27;19911;-54
2022/08/30 07:45:12;;;;;;;;;;;18.90;99.90;;;;;;5126079;27;19934;-53
2022/08/30 07:47:53;;;;;;;;;;;19.00;99.90;;;;;;5108560;27;19912;-54
2022/08/30 07:50:33;;;;;;;;;;;19.10;99.90;;;;;;5126023;27;19915;-53
2022/08/30 07:53:14;;;;;;;;;;;19.20;99.90;;;;;;5126709;27;19918;-53
2022/08/30 07:55:54;;;;;;;;;;;19.30;99.90;;;;;;5125538;27;19922;-53
2022/08/30 07:58:36;;;;;;;;;;;19.40;99.90;;;;;;5106434;27;19920;-53
2022/08/30 08:01:17;;;;;;;;;;;19.50;99.90;;;;;;5139765;22;19924;-55
2022/08/30 08:03:58;;;;;;;;;;;19.60;99.90;;;;;;5125762;27;19916;-55
2022/08/30 08:06:39;;;;;;;;;;;19.70;99.90;;;;;;5125852;27;19957;-55
2022/08/30 08:09:20;;;;;;;;;;;19.80;99.90;;;;;;5124839;27;19926;-55
2022/08/30 08:11:59;;;;;;;;;;;19.90;99.90;;;;;;5125714;27;19918;-55
2022/08/30 08:14:40;;;;;;;;;;;20.00;99.90;;;;;;5105359;27;20378;-55
2022/08/30 08:17:21;;;;;;;;;;;20.00;99.90;;;;;;5104726;27;19954;-55
2022/08/30 08:20:00;;;;;;;;;;;20.00;99.90;;;;;;5125031;27;19919;-55
2022/08/30 08:22:40;;;;;;;;;;;20.10;99.90;;;;;;5125322;27;19912;-55
2022/08/30 08:25:20;;;;;;;;;;;20.20;99.90;;;;;;5104928;27;20381;-55
2022/08/30 08:28:00;;;;;;;;;;;20.30;99.90;;;;;;5104952;27;19912;-55
2022/08/30 08:30:41;;;;;;;;;;;20.30;99.90;;;;;;5116103;27;19912;-55
2022/08/30 08:33:23;;;;;;;;;;;20.40;99.90;;;;;;5125508;27;20269;-55
2022/08/30 08:36:03;;;;;;;;;;;20.60;99.90;;;;;;5125568;27;19912;-55
2022/08/30 08:38:42;;;;;;;;;;;20.60;99.90;;;;;;5104587;27;19962;-55
2022/08/30 08:41:28;;;;;;;;;;;20.60;99.90;;;;;;5110456;27;19912;-56
2022/08/30 08:44:13;;;;;;;;;;;20.60;99.90;;;;;;5105293;27;19950;-55
2022/08/30 08:46:56;;;;;;;;;;;20.80;99.90;;;;;;5125142;27;19911;-56
2022/08/30 08:49:37;;;;;;;;;;;20.90;99.90;;;;;;5124884;27;19912;-56
2022/08/30 08:55:20;;;;;;;;;;;21.20;99.90;;;;;;5125937;27;19922;-56
2022/08/30 08:58:01;;;;;;;;;;;21.20;99.90;;;;;;5125598;27;19926;-56
2022/08/30 09:00:41;;;;;;;;;;;21.20;99.90;;;;;;5094708;27;19913;-56
2022/08/30 09:03:22;;;;;;;;;;;21.30;99.90;;;;;;5125983;27;19918;-56
2022/08/30 09:06:03;;;;;;;;;;;21.40;99.90;;;;;;5126016;27;19912;-56
2022/08/30 09:08:44;;;;;;;;;;;21.50;99.90;;;;;;5125278;27;19911;-56
2022/08/30 09:11:26;;;;;;;;;;;21.60;99.90;;;;;;5125470;27;19912;-56
2022/08/30 09:14:10;;;;;;;;;;;21.70;99.90;;;;;;5126191;27;19946;-56
2022/08/30 09:16:56;;;;;;;;;;;21.80;99.90;;;;;;5125176;27;19916;-56
2022/08/30 09:19:38;;;;;;;;;;;21.70;99.90;;;;;;5124964;27;19912;-56
2022/08/30 09:22:25;;;;;;;;;;;21.70;99.90;;;;;;5105412;27;19916;-56
2022/08/30 09:25:06;;;;;;;;;;;21.80;99.90;;;;;;5125369;27;19911;-55
2022/08/30 09:27:47;;;;;;;;;;;21.90;99.90;;;;;;5125446;27;19912;-56
2022/08/30 09:30:30;;;;;;;;;;;21.90;99.90;;;;;;5124481;27;19912;-56
2022/08/30 09:33:19;;;;;;;;;;;21.90;99.90;;;;;;5125451;27;19912;-55
2022/08/30 09:36:09;;;;;;;;;;;21.90;99.90;;;;;;5125432;27;19918;-56
2022/08/30 09:38:59;;;;;;;;;;;22.10;99.90;;;;;;5124384;27;20376;-56
2022/08/30 09:41:41;;;;;;;;;;;22.20;99.90;;;;;;5108309;27;19912;-56
2022/08/30 09:44:24;;;;;;;;;;;22.20;99.90;;;;;;5105510;27;19930;-56
2022/08/30 09:47:05;;;;;;;;;;;22.30;99.90;;;;;;5104124;27;19934;-56
2022/08/30 09:49:45;;;;;;;;;;;22.40;99.90;;;;;;5104638;27;20232;-56
2022/08/30 09:52:34;;;;;;;;;;;22.50;99.90;;;;;;5084888;28;19912;-56
2022/08/30 09:55:20;;;;;;;;;;;22.50;99.90;;;;;;5125843;27;19911;-56
2022/08/30 09:58:07;;;;;;;;;;;22.60;99.90;;;;;;5125880;27;19918;-56
2022/08/30 10:00:48;;;;;;;;;;;22.60;99.90;;;;;;5124105;27;19916;-55
2022/08/30 10:03:32;;;;;;;;;;;22.70;99.90;;;;;;5125143;27;20270;-56
2022/08/30 10:06:18;;;;;;;;;;;22.70;99.90;;;;;;5125903;27;19911;-56
2022/08/30 10:09:03;;;;;;;;;;;22.80;99.90;;;;;;5124517;27;19912;-56
2022/08/30 10:11:45;;;;;;;;;;;22.90;99.90;;;;;;5087243;27;20325;-56
2022/08/30 10:14:50;;;;;;;;;;;23.10;99.90;;;;;;5125793;27;19916;-56
2022/08/30 10:17:40;;;;;;;;;;;23.20;99.90;;;;;;5125106;27;19916;-56
2022/08/30 10:20:21;;;;;;;;;;;23.30;99.90;;;;;;5118957;27;19916;-56
2022/08/30 10:23:05;;;;;;;;;;;23.30;99.90;;;;;;5125599;27;20319;-56
2022/08/30 10:25:48;;;;;;;;;;;23.50;99.90;;;;;;5125584;27;20576;-56
2022/08/30 10:28:32;;;;;;;;;;;23.60;99.90;;;;;;5104822;27;19912;-56
2022/08/30 10:31:15;;;;;;;;;;;23.70;99.90;;;;;;5091694;27;19916;-56
2022/08/30 10:33:57;;;;;;;;;;;23.90;99.90;;;;;;5125567;27;20372;-56
2022/08/30 10:36:40;;;;;;;;;;;24.10;99.90;;;;;;5125264;27;19911;-55
2022/08/30 10:39:23;;;;;;;;;;;24.30;99.40;;;;;;5125111;27;19933;-56
2022/08/30 10:42:05;;;;;;;;;;;24.50;98.40;;;;;;5105340;27;19916;-56
2022/08/30 10:44:46;;;;;;;;;;;24.70;78.60;;;;;;5125817;27;20535;-56
2022/08/30 10:47:29;;;;;;;;;;;24.80;72.20;;;;;;5125165;27;19920;-56
2022/08/30 10:50:13;;;;;;;;;;;24.90;67.40;;;;;;5071937;28;20423;-56
2022/08/30 10:52:56;;;;;;;;;;;25.10;56.90;;;;;;5101735;27;20331;-56
2022/08/30 10:55:43;;;;;;;;;;;25.20;54.70;;;;;;5124721;27;19915;-56
2022/08/30 10:58:24;;;;;;;;;;;25.20;54.90;;;;;;5125008;27;19922;-55
2022/08/30 11:01:22;;;;;;;;;;;25.20;51.70;;;;;;5115409;27;20324;-55
2022/08/30 11:04:12;;;;;;;;;;;25.20;50.20;;;;;;5101328;27;20224;-56
2022/08/30 11:06:57;;;;;;;;;;;25.20;49.40;;;;;;5110599;27;20385;-56
2022/08/30 11:09:42;;;;;;;;;;;25.40;53.10;;;;;;5098297;27;19935;-56
2022/08/30 11:12:32;;;;;;;;;;;25.50;52.80;;;;;;5104602;27;19945;-56
2022/08/30 11:15:16;;;;;;;;;;;25.60;53.90;;;;;;5084107;28;19920;-56
2022/08/30 11:17:58;;;;;;;;;;;25.60;53.20;;;;;;5125701;27;19916;-56
2022/08/30 11:20:41;;;;;;;;;;;25.50;52.50;;;;;;5074531;28;20313;-56
2022/08/30 11:23:31;;;;;;;;;;;25.70;52.90;;;;;;5091842;27;20316;-56
2022/08/30 11:26:12;;;;;;;;;;;26.10;52.50;;;;;;5124464;27;19915;-55
2022/08/30 11:29:04;;;;;;;;;;;26.40;52.70;;;;;;5138580;27;19916;-56
2022/08/30 11:31:44;;;;;;;;;;;26.60;50.70;;;;;;5110748;27;20325;-56
2022/08/30 11:34:37;;;;;;;;;;;26.70;48.90;;;;;;5097541;27;19926;-56
2022/08/30 11:37:32;;;;;;;;;;;26.80;46.40;;;;;;5119556;27;19915;-56
2022/08/30 11:40:26;;;;;;;;;;;26.70;47.70;;;;;;5058936;28;19917;-56
2022/08/30 11:46:13;;;;;;;;;;;26.30;45.90;;;;;;5105417;27;20427;-56
2022/08/30 11:49:00;;;;;;;;;;;26.00;47.30;;;;;;5090803;27;19916;-56
2022/08/30 11:51:56;;;;;;;;;;;26.00;47.60;;;;;;5066701;28;19917;-56
2022/08/30 11:54:39;;;;;;;;;;;25.80;48.60;;;;;;5105133;27;19912;-55
2022/08/30 11:57:22;;;;;;;;;;;25.60;46.90;;;;;;5104960;27;20437;-56
2022/08/30 12:00:05;;;;;;;;;;;25.40;47.60;;;;;;5079986;28;19913;-56
2022/08/30 12:02:50;;;;;;;;;;;25.20;46.40;;;;;;5125808;27;19912;-55
2022/08/30 12:05:49;;;;;;;;;;;25.20;49.20;;;;;;5077861;28;20300;-56
2022/08/30 12:08:42;;;;;;;;;;;25.30;49.70;;;;;;5102645;27;19973;-58
2022/08/30 12:11:40;;;;;;;;;;;25.50;49.20;;;;;;5145873;27;19915;-56
2022/08/30 12:14:53;;;;;;;;;;;25.60;47.80;;;;;;5119978;27;19927;-56
2022/08/30 12:20:49;;;;;;;;;;;26.00;45.10;;;;;;5111973;27;19947;-55
2022/08/30 12:23:33;;;;;;;;;;;26.10;44.20;;;;;;5104781;27;19926;-56
2022/08/30 12:26:14;;;;;;;;;;;26.30;44.00;;;;;;5124245;27;19916;-55
2022/08/30 12:29:07;;;;;;;;;;;26.50;45.70;;;;;;5080234;28;19916;-55
2022/08/30 12:31:51;;;;;;;;;;;26.50;45.10;;;;;;5106874;27;19912;-56
2022/08/30 12:34:34;;;;;;;;;;;26.50;41.30;;;;;;5100328;27;19958;-56
2022/08/30 12:37:22;;;;;;;;;;;26.40;45.30;;;;;;5104261;27;19912;-56
2022/08/30 12:40:06;;;;;;;;;;;26.30;47.30;;;;;;5121449;27;19916;-56
2022/08/30 12:42:50;;;;;;;;;;;26.30;45.50;;;;;;5125572;27;19942;-56
2022/08/30 12:45:32;;;;;;;;;;;26.10;47.60;;;;;;5125333;27;19911;-56
2022/08/30 12:48:13;;;;;;;;;;;26.20;45.10;;;;;;5146276;27;19912;-56
2022/08/30 12:50:54;;;;;;;;;;;26.20;46.80;;;;;;5124700;27;19920;-56
2022/08/30 12:53:37;;;;;;;;;;;26.10;45.40;;;;;;5105403;27;19912;-56
2022/08/30 12:56:18;;;;;;;;;;;26.10;46.40;;;;;;5125462;27;19911;-56
2022/08/30 12:58:59;;;;;;;;;;;26.10;44.50;;;;;;5079914;28;19936;-56
2022/08/30 13:01:39;;;;;;;;;;;25.90;43.60;;;;;;5107664;27;20362;-56
2022/08/30 13:04:21;;;;;;;;;;;25.80;44.50;;;;;;5091885;27;19917;-55
2022/08/30 13:07:02;;;;;;;;;;;26.00;45.60;;;;;;5124523;27;19911;-56
2022/08/30 13:09:42;;;;;;;;;;;26.10;44.70;;;;;;5124625;27;19912;-56
2022/08/30 13:12:24;;;;;;;;;;;26.10;45.60;;;;;;5125764;27;20321;-56
2022/08/30 13:15:13;;;;;;;;;;;26.10;46.40;;;;;;5125692;27;19916;-56
2022/08/30 13:18:10;;;;;;;;;;;26.10;45.00;;;;;;5125390;27;20308;-56
2022/08/30 13:20:50;;;;;;;;;;;26.10;45.20;;;;;;5113700;27;20358;-56
2022/08/30 13:23:29;;;;;;;;;;;26.10;43.80;;;;;;5146112;27;20377;-56
2022/08/30 13:26:09;;;;;;;;;;;26.10;44.90;;;;;;5125397;27;19912;-56
2022/08/30 13:28:51;;;;;;;;;;;26.20;42.90;;;;;;5125578;27;19912;-56
2022/08/30 13:31:35;;;;;;;;;;;26.30;43.50;;;;;;5104513;27;19916;-56
2022/08/30 13:34:17;;;;;;;;;;;26.40;42.30;;;;;;5124602;27;19918;-55
2022/08/30 13:36:59;;;;;;;;;;;26.60;44.70;;;;;;5145508;27;19912;-58
2022/08/30 13:39:40;;;;;;;;;;;26.90;41.80;;;;;;5101157;27;19965;-56
2022/08/30 13:42:21;;;;;;;;;;;26.80;41.80;;;;;;5125350;27;19927;-55
2022/08/30 13:45:01;;;;;;;;;;;27.00;40.30;;;;;;5125289;27;19918;-56
2022/08/30 13:47:42;;;;;;;;;;;27.20;39.50;;;;;;5125384;27;19916;-56
2022/08/30 13:50:22;;;;;;;;;;;27.40;41.00;;;;;;5104573;27;19919;-56
2022/08/30 13:53:03;;;;;;;;;;;27.40;40.00;;;;;;5105112;27;19966;-56
2022/08/30 13:55:44;;;;;;;;;;;27.30;40.00;;;;;;5104903;27;19912;-56
2022/08/30 13:58:23;;;;;;;;;;;27.20;38.90;;;;;;5105144;27;19912;-56
2022/08/30 14:01:03;;;;;;;;;;;27.30;41.00;;;;;;5113270;27;19912;-55
2022/08/30 14:03:43;;;;;;;;;;;27.00;41.00;;;;;;5084736;28;19913;-58
2022/08/30 14:06:23;;;;;;;;;;;26.60;42.80;;;;;;5125927;27;19912;-55
2022/08/30 14:09:04;;;;;;;;;;;26.30;43.60;;;;;;5104380;27;19916;-56
2022/08/30 14:11:44;;;;;;;;;;;25.90;44.20;;;;;;5107429;27;19916;-55
2022/08/30 14:14:25;;;;;;;;;;;25.80;45.80;;;;;;5126527;27;20270;-57
2022/08/30 14:17:05;;;;;;;;;;;25.50;44.40;;;;;;5125792;27;19911;-56
2022/08/30 14:19:45;;;;;;;;;;;25.30;45.70;;;;;;5124600;27;19912;-55
2022/08/30 14:22:25;;;;;;;;;;;25.20;45.70;;;;;;5126640;27;19916;-55
2022/08/30 14:25:05;;;;;;;;;;;25.10;46.10;;;;;;5125628;27;19911;-55
2022/08/30 14:27:46;;;;;;;;;;;25.10;45.00;;;;;;5135085;27;19926;-55
2022/08/30 14:30:26;;;;;;;;;;;25.20;48.50;;;;;;5097467;27;19912;-56
2022/08/30 14:33:07;;;;;;;;;;;25.30;44.80;;;;;;5105996;27;20393;-55
2022/08/30 14:35:47;;;;;;;;;;;25.40;45.30;;;;;;5126243;27;20276;-54
2022/08/30 14:38:27;;;;;;;;;;;25.40;45.60;;;;;;5105087;27;19969;-55
2022/08/30 14:41:08;;;;;;;;;;;25.20;46.50;;;;;;5112079;27;19912;-55
2022/08/30 14:43:49;;;;;;;;;;;25.10;47.90;;;;;;5125107;27;19926;-55
2022/08/30 14:46:30;;;;;;;;;;;25.20;47.40;;;;;;5124916;27;19915;-55
2022/08/30 14:49:09;;;;;;;;;;;25.20;46.10;;;;;;5124272;27;19918;-55
2022/08/30 14:51:50;;;;;;;;;;;25.20;46.30;;;;;;5125541;27;20380;-54
2022/08/30 14:54:30;;;;;;;;;;;25.20;46.60;;;;;;5146126;27;19912;-55
2022/08/30 14:57:11;;;;;;;;;;;25.20;46.10;;;;;;5105364;27;19916;-55
2022/08/30 14:59:50;;;;;;;;;;;25.20;47.80;;;;;;5123156;27;20169;-54
2022/08/30 15:02:30;;;;;;;;;;;25.20;47.20;;;;;;5129628;27;19919;-57
2022/08/30 15:05:10;;;;;;;;;;;25.40;45.70;;;;;;5105268;27;19938;-56
2022/08/30 15:07:51;;;;;;;;;;;25.40;46.90;;;;;;5146009;27;19915;-55
2022/08/30 15:10:31;;;;;;;;;;;25.40;45.00;;;;;;5117939;27;20381;-57
2022/08/30 15:13:11;;;;;;;;;;;25.40;44.90;;;;;;5125721;27;20267;-55
2022/08/30 15:15:51;;;;;;;;;;;25.60;45.50;;;;;;5142910;27;20225;-56
2022/08/30 15:18:31;;;;;;;;;;;25.80;45.70;;;;;;5105596;27;19916;-55
2022/08/30 15:21:11;;;;;;;;;;;26.00;45.60;;;;;;5097913;27;19920;-55
2022/08/30 15:23:50;;;;;;;;;;;26.20;42.20;;;;;;5139680;27;20327;-56
2022/08/30 15:26:30;;;;;;;;;;;26.10;42.50;;;;;;5124965;27;19919;-56
2022/08/30 15:29:11;;;;;;;;;;;26.00;42.10;;;;;;5130041;27;19916;-58
2022/08/30 15:31:52;;;;;;;;;;;25.80;42.30;;;;;;5136290;27;20318;-56
2022/08/30 15:34:31;;;;;;;;;;;25.80;43.00;;;;;;5102984;27;19922;-55
2022/08/30 15:37:11;;;;;;;;;;;25.80;42.50;;;;;;5104967;27;19913;-55
2022/08/30 15:39:51;;;;;;;;;;;25.90;42.70;;;;;;5101945;27;19916;-56
2022/08/30 15:42:32;;;;;;;;;;;25.80;41.30;;;;;;5125457;27;19911;-56
2022/08/30 15:45:12;;;;;;;;;;;25.70;42.20;;;;;;5105404;27;19912;-56
2022/08/30 15:47:52;;;;;;;;;;;25.60;42.30;;;;;;5105155;27;20211;-56
2022/08/30 15:50:32;;;;;;;;;;;25.50;42.10;;;;;;5116747;27;19912;-56